Time;durP1;ratioP1;P1;durP2;ratioP2;P2;SDS_P1;SDS_P2;PMS_P1;PMS_P2;Temp;Humidity;BMP_temperature;BMP_pressure;BME280_temperature;BME280_humidity;BME280_pressure;Samples;Min_cycle;Max_cycle;Signal;HPM_P1;HPM_P2
2022/04/08 00:03:26;;;;;;;19.92;17.50;;;;;;;;;;10282654;28;20065;-64
2022/04/08 00:08:25;;;;;;;21.55;17.60;;;;;;;;;;10281626;28;20073;-62
2022/04/08 00:13:23;;;;;;;22.52;19.05;;;;;;;;;;10282808;28;20080;-62
2022/04/08 00:18:23;;;;;;;20.85;17.25;;;;;;;;;;10286154;28;20501;-62
2022/04/08 00:23:22;;;;;;;21.40;16.98;;;;;;;;;;10308633;28;20048;-63
2022/04/08 00:28:20;;;;;;;18.65;16.40;;;;;;;;;;10288035;28;20060;-63
2022/04/08 00:33:18;;;;;;;20.25;16.05;;;;;;;;;;10307612;28;20075;-63
2022/04/08 00:38:18;;;;;;;21.05;18.35;;;;;;;;;;10288782;28;20037;-63
2022/04/08 00:43:17;;;;;;;19.73;17.73;;;;;;;;;;10288837;28;20395;-63
2022/04/08 00:48:16;;;;;;;18.60;16.65;;;;;;;;;;10287894;28;20045;-63
2022/04/08 00:53:14;;;;;;;27.10;18.73;;;;;;;;;;10288616;28;20087;-63
2022/04/08 00:58:14;;;;;;;18.17;16.20;;;;;;;;;;10288572;28;20080;-64
2022/04/08 01:03:12;;;;;;;20.02;16.27;;;;;;;;;;10287446;28;20507;-64
2022/04/08 01:08:12;;;;;;;22.10;16.23;;;;;;;;;;10286993;28;20084;-64
2022/04/08 01:13:10;;;;;;;19.60;17.55;;;;;;;;;;10287672;28;20493;-64
2022/04/08 01:18:10;;;;;;;18.70;16.75;;;;;;;;;;10287675;28;20075;-64
2022/04/08 01:23:08;;;;;;;21.67;18.50;;;;;;;;;;10287659;28;20068;-64
2022/04/08 01:28:08;;;;;;;19.75;16.45;;;;;;;;;;10287314;28;20069;-63
2022/04/08 01:33:06;;;;;;;20.52;16.67;;;;;;;;;;10287297;28;20080;-63
2022/04/08 01:38:05;;;;;;;21.77;17.75;;;;;;;;;;10286077;28;20076;-63
2022/04/08 01:43:03;;;;;;;19.88;17.80;;;;;;;;;;10286767;28;20075;-63
2022/04/08 01:48:03;;;;;;;22.20;17.33;;;;;;;;;;10286448;28;20068;-63
2022/04/08 01:53:01;;;;;;;20.50;16.75;;;;;;;;;;10286227;28;20067;-63
2022/04/08 01:57:59;;;;;;;21.13;18.15;;;;;;;;;;10286145;28;20068;-63
2022/04/08 02:02:58;;;;;;;18.75;16.80;;;;;;;;;;10285782;28;20079;-63
2022/04/08 02:07:57;;;;;;;18.33;16.40;;;;;;;;;;10284839;28;20079;-63
2022/04/08 02:12:55;;;;;;;22.70;17.45;;;;;;;;;;10285368;28;20499;-63
2022/04/08 02:17:54;;;;;;;19.65;16.58;;;;;;;;;;10285740;28;20092;-64
2022/04/08 02:22:52;;;;;;;22.40;17.30;;;;;;;;;;10285068;28;20068;-63
2022/04/08 02:27:52;;;;;;;19.67;17.17;;;;;;;;;;10261078;28;20064;-60
2022/04/08 02:32:50;;;;;;;17.83;16.05;;;;;;;;;;10261735;28;20091;-62
2022/04/08 02:37:48;;;;;;;20.10;17.50;;;;;;;;;;10260008;28;20067;-62
2022/04/08 02:42:46;;;;;;;18.05;15.63;;;;;;;;;;10283937;28;20056;-62
2022/04/08 02:47:46;;;;;;;18.70;16.00;;;;;;;;;;10283704;28;20079;-64
2022/04/08 02:52:44;;;;;;;19.55;16.27;;;;;;;;;;10283395;28;20595;-62
2022/04/08 02:57:46;;;;;;;18.92;16.83;;;;;;;;;;10281760;28;20045;-62
2022/04/08 03:02:46;;;;;;;27.15;22.10;;;;;;;;;;10283605;28;20087;-63
2022/04/08 03:07:44;;;;;;;18.35;15.80;;;;;;;;;;10282401;28;20076;-63
2022/04/08 03:12:42;;;;;;;23.58;16.23;;;;;;;;;;10283124;28;20072;-63
2022/04/08 03:17:41;;;;;;;15.93;14.32;;;;;;;;;;10282774;28;20505;-62
2022/04/08 03:22:40;;;;;;;16.67;14.98;;;;;;;;;;10282928;28;20078;-63
2022/04/08 03:27:38;;;;;;;16.73;13.98;;;;;;;;;;10282958;28;20089;-63
2022/04/08 03:32:37;;;;;;;17.10;15.13;;;;;;;;;;10280930;28;20076;-62
2022/04/08 03:37:35;;;;;;;16.25;14.55;;;;;;;;;;10282723;28;20071;-62
2022/04/08 03:42:34;;;;;;;16.02;12.98;;;;;;;;;;10280155;28;20068;-63
2022/04/08 03:47:33;;;;;;;17.27;14.20;;;;;;;;;;10283098;28;20076;-62
2022/04/08 03:52:32;;;;;;;17.02;13.10;;;;;;;;;;10283999;28;20073;-63
2022/04/08 03:57:30;;;;;;;22.42;13.35;;;;;;;;;;10287349;28;20086;-62
2022/04/08 04:02:30;;;;;;;17.77;12.90;;;;;;;;;;10289483;28;20080;-63
2022/04/08 04:07:29;;;;;;;15.40;13.80;;;;;;;;;;10288623;28;20217;-63
2022/04/08 04:12:27;;;;;;;19.35;13.68;;;;;;;;;;10284066;28;20513;-62
2022/04/08 04:17:28;;;;;;;15.80;13.07;;;;;;;;;;10309020;28;20517;-63
2022/04/08 04:22:27;;;;;;;16.05;14.07;;;;;;;;;;10286999;28;20048;-63
2022/04/08 04:27:25;;;;;;;16.02;13.32;;;;;;;;;;10286820;28;20217;-63
2022/04/08 04:32:24;;;;;;;23.20;14.68;;;;;;;;;;10277546;28;20378;-63
2022/04/08 04:37:22;;;;;;;16.70;13.82;;;;;;;;;;10278469;28;20033;-62
2022/04/08 04:42:21;;;;;;;13.77;12.27;;;;;;;;;;10272109;28;20080;-63
2022/04/08 04:47:20;;;;;;;15.88;13.20;;;;;;;;;;10281193;28;20071;-62
2022/04/08 04:52:18;;;;;;;15.82;13.35;;;;;;;;;;10282737;28;20068;-62
2022/04/08 04:57:17;;;;;;;16.67;13.20;;;;;;;;;;10274491;28;20059;-61
2022/04/08 05:02:17;;;;;;;12.82;10.82;;;;;;;;;;10279080;28;20075;-62
2022/04/08 05:07:15;;;;;;;12.02;10.40;;;;;;;;;;10279846;28;20077;-63
2022/04/08 05:12:14;;;;;;;13.07;10.45;;;;;;;;;;10279090;28;20564;-62
2022/04/08 05:17:12;;;;;;;18.85;12.50;;;;;;;;;;10280395;28;20070;-62
2022/04/08 05:22:12;;;;;;;16.63;10.93;;;;;;;;;;10277009;28;20116;-63
2022/04/08 05:27:10;;;;;;;16.58;11.88;;;;;;;;;;10275349;28;20450;-61
2022/04/08 05:32:08;;;;;;;16.20;11.90;;;;;;;;;;10281052;28;20065;-63
2022/04/08 05:37:07;;;;;;;18.08;14.27;;;;;;;;;;10279700;28;20644;-63
2022/04/08 05:42:07;;;;;;;17.95;13.85;;;;;;;;;;10273378;28;20072;-66
2022/04/08 05:47:06;;;;;;;16.52;12.30;;;;;;;;;;10280588;28;20049;-66
2022/04/08 05:52:04;;;;;;;14.68;10.38;;;;;;;;;;10280673;28;20103;-67
2022/04/08 05:57:03;;;;;;;12.02;10.10;;;;;;;;;;10273833;28;20069;-67
2022/04/08 06:02:02;;;;;;;12.38;9.68;;;;;;;;;;10270151;28;20490;-63
2022/04/08 06:07:01;;;;;;;11.25;9.60;;;;;;;;;;10274461;28;20076;-62
2022/04/08 06:12:00;;;;;;;16.52;11.32;;;;;;;;;;10259996;28;20072;-62
2022/04/08 06:16:58;;;;;;;13.88;12.43;;;;;;;;;;10293099;28;20076;-62
2022/04/08 06:21:59;;;;;;;14.90;9.90;;;;;;;;;;10281452;28;20068;-63
2022/04/08 06:26:57;;;;;;;14.95;9.52;;;;;;;;;;10283375;28;20072;-63
2022/04/08 06:31:55;;;;;;;12.40;11.10;;;;;;;;;;10277101;28;20094;-64
2022/04/08 06:36:54;;;;;;;12.52;9.35;;;;;;;;;;10277894;28;20076;-64
2022/04/08 06:41:53;;;;;;;12.10;10.65;;;;;;;;;;10278587;28;20743;-64
2022/04/08 06:46:51;;;;;;;14.55;11.20;;;;;;;;;;10280567;28;20077;-64
2022/04/08 06:51:53;;;;;;;13.65;10.40;;;;;;;;;;10273687;28;20548;-64
2022/04/08 06:56:52;;;;;;;15.70;9.82;;;;;;;;;;10275543;28;20493;-63
2022/04/08 07:01:55;;;;;;;15.40;8.27;;;;;;;;;;10283335;28;20033;-64
2022/04/08 07:06:56;;;;;;;14.23;8.95;;;;;;;;;;10282670;28;20538;-64
2022/04/08 07:11:55;;;;;;;16.33;10.38;;;;;;;;;;10282599;28;20061;-64
2022/04/08 07:16:54;;;;;;;13.60;9.40;;;;;;;;;;10282751;28;20079;-64
2022/04/08 07:21:52;;;;;;;13.52;11.75;;;;;;;;;;10283304;28;20474;-64
2022/04/08 07:26:50;;;;;;;12.95;7.82;;;;;;;;;;10290948;28;20489;-64
2022/04/08 07:31:50;;;;;;;13.18;10.88;;;;;;;;;;10283625;28;20494;-62
2022/04/08 07:36:49;;;;;;;9.95;7.70;;;;;;;;;;10289887;28;20068;-62
2022/04/08 07:41:47;;;;;;;13.18;10.95;;;;;;;;;;10297166;28;20075;-62
2022/04/08 07:46:46;;;;;;;9.43;7.70;;;;;;;;;;10297451;28;20087;-62
2022/04/08 07:51:46;;;;;;;9.50;5.72;;;;;;;;;;10295895;28;20080;-62
2022/04/08 07:56:44;;;;;;;13.50;7.50;;;;;;;;;;10296321;28;20068;-62
2022/04/08 08:01:48;;;;;;;13.05;6.63;;;;;;;;;;10296563;28;20065;-63
2022/04/08 08:06:48;;;;;;;9.88;6.25;;;;;;;;;;10295741;28;20045;-62
2022/04/08 08:11:47;;;;;;;10.52;5.75;;;;;;;;;;10296469;28;20323;-63
2022/04/08 08:16:46;;;;;;;5.53;4.90;;;;;;;;;;10294595;28;20052;-63
2022/04/08 08:21:45;;;;;;;6.25;4.82;;;;;;;;;;10295806;28;20068;-63
2022/04/08 08:26:45;;;;;;;5.72;5.10;;;;;;;;;;10288567;28;20615;-62
2022/04/08 08:31:43;;;;;;;9.95;6.03;;;;;;;;;;10289645;28;20033;-63
2022/04/08 08:36:45;;;;;;;7.80;5.40;;;;;;;;;;10293888;28;20072;-63
2022/04/08 08:41:45;;;;;;;8.00;5.03;;;;;;;;;;10288105;28;20048;-62
2022/04/08 08:46:43;;;;;;;8.65;5.30;;;;;;;;;;10294130;28;20083;-63
2022/04/08 08:51:44;;;;;;;14.25;6.88;;;;;;;;;;10294167;28;20072;-62
2022/04/08 08:56:43;;;;;;;5.28;3.78;;;;;;;;;;10293954;28;20084;-63
2022/04/08 09:01:43;;;;;;;6.53;5.05;;;;;;;;;;10287925;28;20040;-62
2022/04/08 09:06:41;;;;;;;7.75;4.55;;;;;;;;;;10280540;28;20076;-62
2022/04/08 09:11:39;;;;;;;9.68;4.63;;;;;;;;;;10279850;28;20072;-62
2022/04/08 09:16:38;;;;;;;9.63;5.80;;;;;;;;;;10287357;28;20068;-62
2022/04/08 09:21:38;;;;;;;7.68;4.40;;;;;;;;;;10286576;28;20540;-63
2022/04/08 09:26:36;;;;;;;6.00;4.72;;;;;;;;;;10287204;28;20064;-62
2022/04/08 09:31:34;;;;;;;26.10;7.05;;;;;;;;;;10286547;28;20075;-61
2022/04/08 09:36:35;;;;;;;13.95;7.35;;;;;;;;;;10286380;28;20068;-62
2022/04/08 09:41:39;;;;;;;9.88;3.70;;;;;;;;;;10286347;28;20068;-61
2022/04/08 09:46:38;;;;;;;5.93;4.53;;;;;;;;;;10285059;28;20076;-62
2022/04/08 09:51:37;;;;;;;5.55;3.90;;;;;;;;;;10285931;28;20080;-62
2022/04/08 09:56:37;;;;;;;8.98;4.53;;;;;;;;;;10285755;28;20080;-62
2022/04/08 10:01:37;;;;;;;7.75;4.43;;;;;;;;;;10285710;28;20497;-62
2022/04/08 10:06:36;;;;;;;7.80;5.50;;;;;;;;;;10284932;28;20568;-61
2022/04/08 10:11:40;;;;;;;4.57;3.88;;;;;;;;;;10285193;28;20419;-62
2022/04/08 10:16:40;;;;;;;6.97;4.37;;;;;;;;;;10284988;28;20072;-62
2022/04/08 10:21:39;;;;;;;11.57;5.85;;;;;;;;;;10284565;28;20065;-62
2022/04/08 10:26:56;;;;;;;5.93;4.75;;;;;;;;;;10284419;28;20068;-63
2022/04/08 10:32:00;;;;;;;8.00;4.85;;;;;;;;;;10292541;28;20064;-63
2022/04/08 10:36:59;;;;;;;6.55;4.22;;;;;;;;;;10283849;28;20088;-63
2022/04/08 10:41:57;;;;;;;6.78;4.30;;;;;;;;;;10283254;28;20069;-63
2022/04/08 10:46:58;;;;;;;6.43;4.47;;;;;;;;;;10283762;28;20076;-63
2022/04/08 10:51:57;;;;;;;6.70;3.58;;;;;;;;;;10283099;28;20041;-63
2022/04/08 10:56:59;;;;;;;7.90;4.28;;;;;;;;;;10282733;28;20095;-63
2022/04/08 11:02:02;;;;;;;4.60;2.90;;;;;;;;;;10282912;28;20438;-63
2022/04/08 11:07:06;;;;;;;8.30;3.65;;;;;;;;;;10282703;28;20413;-63
2022/04/08 11:12:06;;;;;;;5.07;2.95;;;;;;;;;;10283106;28;20561;-63
2022/04/08 11:17:05;;;;;;;4.93;3.38;;;;;;;;;;10282428;28;20393;-63
2022/04/08 11:22:12;;;;;;;6.57;3.67;;;;;;;;;;10282607;28;20502;-63
2022/04/08 11:27:11;;;;;;;7.60;4.03;;;;;;;;;;10277814;28;20517;-62
2022/04/08 11:32:10;;;;;;;4.50;4.05;;;;;;;;;;10272075;28;20076;-63
2022/04/08 11:37:09;;;;;;;4.80;3.25;;;;;;;;;;10272479;28;20548;-64
2022/04/08 11:42:09;;;;;;;5.63;3.05;;;;;;;;;;10274941;28;20036;-63
2022/04/08 11:47:08;;;;;;;6.72;3.33;;;;;;;;;;10282707;28;20084;-63
2022/04/08 11:52:07;;;;;;;3.88;3.47;;;;;;;;;;10282022;28;20093;-64
2022/04/08 11:57:07;;;;;;;3.92;3.40;;;;;;;;;;10282149;28;20072;-64
2022/04/08 12:02:08;;;;;;;6.53;3.03;;;;;;;;;;10281066;28;20037;-63
2022/04/08 12:07:20;;;;;;;5.35;2.75;;;;;;;;;;10281675;28;20083;-63
2022/04/08 12:12:25;;;;;;;4.53;3.97;;;;;;;;;;10288384;28;20068;-63
2022/04/08 12:17:24;;;;;;;4.43;3.05;;;;;;;;;;10288567;28;20084;-63
2022/04/08 12:22:26;;;;;;;4.55;2.92;;;;;;;;;;10289127;28;20113;-63
2022/04/08 12:27:25;;;;;;;7.90;3.28;;;;;;;;;;10288653;28;20085;-62
2022/04/08 12:32:24;;;;;;;5.20;3.58;;;;;;;;;;10288027;28;20087;-63
2022/04/08 12:37:23;;;;;;;5.57;3.10;;;;;;;;;;10288669;28;20079;-63
2022/04/08 12:42:21;;;;;;;10.70;3.63;;;;;;;;;;10288386;28;20071;-63
2022/04/08 12:47:22;;;;;;;7.32;2.95;;;;;;;;;;10288187;28;20071;-62
2022/04/08 12:52:22;;;;;;;5.13;2.63;;;;;;;;;;10287812;28;20045;-62
2022/04/08 12:57:20;;;;;;;11.27;3.38;;;;;;;;;;10288222;28;20065;-62
2022/04/08 13:02:39;;;;;;;7.72;3.10;;;;;;;;;;10287734;28;20044;-62
2022/04/08 13:07:39;;;;;;;4.32;3.53;;;;;;;;;;10286594;28;20056;-63
2022/04/08 13:12:37;;;;;;;5.40;3.53;;;;;;;;;;10287216;28;20075;-62
2022/04/08 13:17:36;;;;;;;6.43;2.78;;;;;;;;;;10286801;28;20107;-63
2022/04/08 13:22:34;;;;;;;5.70;2.80;;;;;;;;;;10278232;28;20065;-62
2022/04/08 13:27:34;;;;;;;5.35;3.47;;;;;;;;;;10276708;28;20384;-62
2022/04/08 13:32:36;;;;;;;6.13;4.43;;;;;;;;;;10276223;28;20044;-63
2022/04/08 13:37:35;;;;;;;6.38;2.95;;;;;;;;;;10284362;28;20072;-62
2022/04/08 13:42:35;;;;;;;6.15;3.28;;;;;;;;;;10285857;28;20083;-62
2022/04/08 13:47:33;;;;;;;6.50;3.35;;;;;;;;;;10285824;28;20045;-62
2022/04/08 13:52:32;;;;;;;9.98;3.38;;;;;;;;;;10285573;28;20037;-63
2022/04/08 13:57:30;;;;;;;9.07;2.88;;;;;;;;;;10285502;28;20468;-63
2022/04/08 14:02:31;;;;;;;9.15;3.08;;;;;;;;;;10285568;28;20045;-63
2022/04/08 14:07:29;;;;;;;6.78;2.50;;;;;;;;;;10284841;28;20084;-63
2022/04/08 14:12:28;;;;;;;5.47;2.95;;;;;;;;;;10285303;28;20079;-63
2022/04/08 14:17:26;;;;;;;5.13;3.15;;;;;;;;;;10284739;28;20076;-63
2022/04/08 14:22:25;;;;;;;8.88;2.97;;;;;;;;;;10284421;28;20076;-63
2022/04/08 14:27:23;;;;;;;4.05;2.92;;;;;;;;;;10284367;28;20076;-63
2022/04/08 14:32:22;;;;;;;5.90;2.30;;;;;;;;;;10282716;28;20064;-63
2022/04/08 14:37:20;;;;;;;6.82;3.08;;;;;;;;;;10283815;28;20068;-63
2022/04/08 14:42:20;;;;;;;9.32;3.42;;;;;;;;;;10283928;28;20068;-63
2022/04/08 14:47:18;;;;;;;6.80;3.25;;;;;;;;;;10283726;28;20070;-62
2022/04/08 14:52:16;;;;;;;5.05;3.08;;;;;;;;;;10283483;28;20540;-63
2022/04/08 14:57:15;;;;;;;4.85;3.08;;;;;;;;;;10283282;28;20135;-62
2022/04/08 15:02:14;;;;;;;9.05;3.00;;;;;;;;;;10282241;28;20064;-62
2022/04/08 15:07:13;;;;;;;9.93;3.45;;;;;;;;;;10282537;28;20118;-62
2022/04/08 15:12:13;;;;;;;11.75;3.97;;;;;;;;;;10283129;28;20063;-62
2022/04/08 15:17:11;;;;;;;7.03;3.50;;;;;;;;;;10282738;28;20148;-62
2022/04/08 15:22:11;;;;;;;8.75;4.43;;;;;;;;;;10282486;28;20095;-62
2022/04/08 15:27:29;;;;;;;9.55;5.22;;;;;;;;;;10282525;28;20095;-62
2022/04/08 15:32:28;;;;;;;6.07;4.40;;;;;;;;;;10281094;28;20040;-63
2022/04/08 15:37:28;;;;;;;12.63;6.88;;;;;;;;;;10274541;28;20072;-62
2022/04/08 15:42:30;;;;;;;23.77;11.90;;;;;;;;;;10272878;28;20045;-62
2022/04/08 15:47:30;;;;;;;7.00;3.90;;;;;;;;;;10279983;28;20052;-63
2022/04/08 15:52:31;;;;;;;4.40;3.45;;;;;;;;;;10286887;28;20080;-63
2022/04/08 15:57:30;;;;;;;10.02;4.28;;;;;;;;;;10289916;28;20072;-63
2022/04/08 16:02:30;;;;;;;6.75;2.65;;;;;;;;;;10289793;28;20114;-63
2022/04/08 16:07:28;;;;;;;8.93;4.53;;;;;;;;;;10288838;28;20068;-62
2022/04/08 16:12:28;;;;;;;6.75;4.38;;;;;;;;;;10289387;28;20087;-63
2022/04/08 16:17:26;;;;;;;12.00;5.22;;;;;;;;;;10288851;28;20071;-63
2022/04/08 16:22:30;;;;;;;5.72;4.07;;;;;;;;;;10289100;28;20071;-62
2022/04/08 16:27:30;;;;;;;14.70;8.07;;;;;;;;;;10288416;28;20071;-63
2022/04/08 16:32:28;;;;;;;9.82;5.63;;;;;;;;;;10279795;28;20079;-62
2022/04/08 16:37:36;;;;;;;8.93;5.50;;;;;;;;;;10299075;28;20093;-62
2022/04/08 16:42:38;;;;;;;9.93;6.90;;;;;;;;;;10274663;28;20111;-62
2022/04/08 16:47:36;;;;;;;17.40;9.75;;;;;;;;;;10284917;28;20072;-62
2022/04/08 16:52:34;;;;;;;9.43;6.72;;;;;;;;;;10286859;28;20143;-63
2022/04/08 16:57:32;;;;;;;11.65;9.13;;;;;;;;;;10287184;28;20079;-63
2022/04/08 17:02:45;;;;;;;43.25;27.20;;;;;;;;;;10287510;28;20079;-61
2022/04/08 17:07:44;;;;;;;12.00;8.77;;;;;;;;;;10286590;28;20515;-63
2022/04/08 17:12:42;;;;;;;10.07;6.43;;;;;;;;;;10287544;28;20076;-63
2022/04/08 17:17:40;;;;;;;8.43;5.45;;;;;;;;;;10286550;28;20068;-63
2022/04/08 17:22:40;;;;;;;8.07;5.35;;;;;;;;;;10286510;28;20040;-63
2022/04/08 17:27:39;;;;;;;13.15;6.85;;;;;;;;;;10286398;28;20033;-62
2022/04/08 17:32:37;;;;;;;7.88;6.45;;;;;;;;;;10286491;28;20072;-63
2022/04/08 17:37:35;;;;;;;13.75;8.27;;;;;;;;;;10286181;28;20486;-63
2022/04/08 17:42:36;;;;;;;15.23;10.55;;;;;;;;;;10286279;28;20064;-63
2022/04/08 17:47:34;;;;;;;12.07;8.55;;;;;;;;;;10286122;28;20072;-63
2022/04/08 17:52:33;;;;;;;16.70;9.35;;;;;;;;;;10286120;28;20048;-63
2022/04/08 17:57:31;;;;;;;15.73;9.35;;;;;;;;;;10285524;28;20083;-63
2022/04/08 18:02:32;;;;;;;13.15;7.93;;;;;;;;;;10285315;28;20493;-63
2022/04/08 18:07:31;;;;;;;10.57;6.03;;;;;;;;;;10283844;28;20099;-63
2022/04/08 18:12:30;;;;;;;9.02;6.10;;;;;;;;;;10284732;28;20098;-63
2022/04/08 18:17:29;;;;;;;9.07;4.95;;;;;;;;;;10284971;28;20147;-63
2022/04/08 18:22:31;;;;;;;9.57;5.55;;;;;;;;;;10284866;28;20513;-63
2022/04/08 18:27:29;;;;;;;9.73;6.00;;;;;;;;;;10284184;28;20079;-63
2022/04/08 18:32:28;;;;;;;6.22;3.35;;;;;;;;;;10284496;28;20064;-62
2022/04/08 18:37:26;;;;;;;5.32;3.53;;;;;;;;;;10283724;28;20079;-63
2022/04/08 18:42:26;;;;;;;10.68;4.05;;;;;;;;;;10284055;28;20079;-63
2022/04/08 18:47:24;;;;;;;7.40;3.40;;;;;;;;;;10281306;28;20065;-63
2022/04/08 18:52:23;;;;;;;9.70;3.22;;;;;;;;;;10285153;28;20045;-63
2022/04/08 18:57:23;;;;;;;4.47;3.00;;;;;;;;;;10283560;28;20080;-63
2022/04/08 19:02:23;;;;;;;4.32;2.20;;;;;;;;;;10283784;28;20083;-63
2022/04/08 19:07:21;;;;;;;10.90;3.53;;;;;;;;;;10282923;28;20510;-63
2022/04/08 19:12:19;;;;;;;6.72;2.72;;;;;;;;;;10282745;28;20068;-63
2022/04/08 19:17:18;;;;;;;10.80;2.78;;;;;;;;;;10282781;28;20087;-64
2022/04/08 19:22:17;;;;;;;4.47;2.90;;;;;;;;;;10283078;28;20049;-63
2022/04/08 19:27:16;;;;;;;4.57;2.80;;;;;;;;;;10282393;28;20075;-64
2022/04/08 19:32:14;;;;;;;4.35;3.72;;;;;;;;;;10281051;28;20072;-63
2022/04/08 19:37:13;;;;;;;6.15;3.55;;;;;;;;;;10282745;28;20072;-64
2022/04/08 19:42:12;;;;;;;6.93;3.22;;;;;;;;;;10282682;28;20066;-63
2022/04/08 19:47:11;;;;;;;7.15;3.50;;;;;;;;;;10282717;28;20076;-63
2022/04/08 19:52:09;;;;;;;6.22;2.90;;;;;;;;;;10282518;28;20509;-62
2022/04/08 19:57:08;;;;;;;5.90;3.03;;;;;;;;;;10282444;28;20077;-63
2022/04/08 20:02:08;;;;;;;5.25;2.88;;;;;;;;;;10280730;28;20053;-63
2022/04/08 20:07:07;;;;;;;3.75;2.42;;;;;;;;;;10281801;28;20072;-63
2022/04/08 20:12:05;;;;;;;3.60;3.00;;;;;;;;;;10282345;28;20079;-63
2022/04/08 20:17:04;;;;;;;3.55;3.20;;;;;;;;;;10281971;28;20084;-62
2022/04/08 20:22:04;;;;;;;8.05;3.00;;;;;;;;;;10282390;28;20045;-62
2022/04/08 20:27:02;;;;;;;5.13;2.80;;;;;;;;;;10282315;28;20048;-62
2022/04/08 20:32:01;;;;;;;6.13;2.95;;;;;;;;;;10286156;28;20068;-62
2022/04/08 20:36:59;;;;;;;9.13;2.95;;;;;;;;;;10288839;28;20506;-62
2022/04/08 20:41:59;;;;;;;5.07;2.65;;;;;;;;;;10288573;28;20060;-63
2022/04/08 20:46:57;;;;;;;8.88;3.40;;;;;;;;;;10288313;28;20069;-63
2022/04/08 20:51:55;;;;;;;4.30;2.50;;;;;;;;;;10288359;28;20068;-63
2022/04/08 20:56:54;;;;;;;8.35;3.30;;;;;;;;;;10285950;28;20045;-63
2022/04/08 21:01:54;;;;;;;5.38;2.47;;;;;;;;;;10273531;28;20450;-64
2022/04/08 21:06:52;;;;;;;3.95;2.38;;;;;;;;;;10272839;28;20073;-63
2022/04/08 21:11:51;;;;;;;6.10;2.50;;;;;;;;;;10263098;28;20075;-63
2022/04/08 21:16:49;;;;;;;3.20;2.13;;;;;;;;;;10266991;28;20060;-63
2022/04/08 21:21:49;;;;;;;4.47;2.20;;;;;;;;;;10279010;28;20080;-63
2022/04/08 21:26:48;;;;;;;3.25;2.20;;;;;;;;;;10274519;28;20068;-64
2022/04/08 21:31:46;;;;;;;3.30;2.25;;;;;;;;;;10289115;28;20071;-64
2022/04/08 21:36:45;;;;;;;3.35;2.28;;;;;;;;;;10289442;28;20083;-64
2022/04/08 21:41:45;;;;;;;3.60;2.88;;;;;;;;;;10274433;28;20072;-63
2022/04/08 21:46:48;;;;;;;;;;;;;;;;;;10270222;28;20061;-63
2022/04/08 21:51:46;;;;;;;3.22;2.22;;;;;;;;;;10272908;28;20277;-63
2022/04/08 21:56:46;;;;;;;3.42;2.25;;;;;;;;;;10273295;28;20060;-63
2022/04/08 22:01:45;;;;;;;7.30;2.20;;;;;;;;;;10299964;28;20072;-63
2022/04/08 22:06:43;;;;;;;3.35;2.50;;;;;;;;;;10283716;28;20060;-64
2022/04/08 22:11:41;;;;;;;3.03;2.38;;;;;;;;;;10274700;28;20076;-64
2022/04/08 22:16:41;;;;;;;3.50;2.67;;;;;;;;;;10274046;28;20095;-63
2022/04/08 22:21:39;;;;;;;4.10;2.72;;;;;;;;;;10277039;28;20080;-63
2022/04/08 22:26:38;;;;;;;5.32;2.65;;;;;;;;;;10285558;28;20068;-63
2022/04/08 22:31:36;;;;;;;4.00;2.50;;;;;;;;;;10282193;28;20064;-62
2022/04/08 22:36:35;;;;;;;3.60;2.20;;;;;;;;;;10305603;28;20063;-62
2022/04/08 22:41:34;;;;;;;3.47;2.25;;;;;;;;;;10284935;28;20079;-63
2022/04/08 22:46:33;;;;;;;3.53;2.13;;;;;;;;;;10283824;28;20485;-63
2022/04/08 22:51:31;;;;;;;5.93;2.45;;;;;;;;;;10282431;28;20061;-63
2022/04/08 22:56:31;;;;;;;5.88;2.38;;;;;;;;;;10273443;28;20053;-63
2022/04/08 23:01:29;;;;;;;2.78;1.98;;;;;;;;;;10273213;28;20118;-63
2022/04/08 23:06:28;;;;;;;3.90;2.92;;;;;;;;;;10274928;28;20114;-63
2022/04/08 23:11:26;;;;;;;4.57;2.78;;;;;;;;;;10283850;28;20044;-63
2022/04/08 23:16:26;;;;;;;7.38;2.70;;;;;;;;;;10283706;28;20044;-63
2022/04/08 23:21:24;;;;;;;4.05;2.33;;;;;;;;;;10283886;28;20067;-63
2022/04/08 23:26:22;;;;;;;3.88;2.60;;;;;;;;;;10283004;28;20095;-63
2022/04/08 23:31:20;;;;;;;6.97;2.92;;;;;;;;;;10281333;28;20051;-63
2022/04/08 23:36:20;;;;;;;5.10;2.60;;;;;;;;;;10272922;28;20449;-63
2022/04/08 23:41:19;;;;;;;10.48;3.55;;;;;;;;;;10265718;28;20076;-63
2022/04/08 23:46:17;;;;;;;5.35;2.85;;;;;;;;;;10277903;28;20041;-63
2022/04/08 23:51:15;;;;;;;5.38;2.40;;;;;;;;;;10278734;28;20068;-62
2022/04/08 23:56:15;;;;;;;6.45;2.72;;;;;;;;;;10273418;28;20064;-63
